sensor_id;sensor_type;location;lat;lon;timestamp;temperature;humidity
20590;DHT22;10453;50.810;12.540;2022-07-29T00:03:00;14.80;99.80
20590;DHT22;10453;50.810;12.540;2022-07-29T00:07:17;14.90;99.80
20590;DHT22;10453;50.810;12.540;2022-07-29T00:11:34;14.80;99.90
20590;DHT22;10453;50.810;12.540;2022-07-29T00:15:51;14.80;99.90
20590;DHT22;10453;50.810;12.540;2022-07-29T00:20:08;14.80;99.90
20590;DHT22;10453;50.810;12.540;2022-07-29T00:24:25;14.70;99.90
20590;DHT22;10453;50.810;12.540;2022-07-29T00:28:42;14.80;99.90
20590;DHT22;10453;50.810;12.540;2022-07-29T00:33:00;14.70;99.90
20590;DHT22;10453;50.810;12.540;2022-07-29T00:37:17;14.80;99.90
20590;DHT22;10453;50.810;12.540;2022-07-29T00:41:34;14.70;99.90
20590;DHT22;10453;50.810;12.540;2022-07-29T00:45:51;14.70;99.90
20590;DHT22;10453;50.810;12.540;2022-07-29T00:50:08;14.70;99.90
20590;DHT22;10453;50.810;12.540;2022-07-29T00:54:27;14.60;99.90
20590;DHT22;10453;50.810;12.540;2022-07-29T00:58:44;14.70;99.90
20590;DHT22;10453;50.810;12.540;2022-07-29T01:03:03;14.80;99.90
20590;DHT22;10453;50.810;12.540;2022-07-29T01:07:20;14.80;99.90
20590;DHT22;10453;50.810;12.540;2022-07-29T01:11:37;14.90;99.90
20590;DHT22;10453;50.810;12.540;2022-07-29T01:15:56;14.80;99.90
20590;DHT22;10453;50.810;12.540;2022-07-29T01:24:55;14.70;99.90
20590;DHT22;10453;50.810;12.540;2022-07-29T01:33:36;14.70;99.90
20590;DHT22;10453;50.810;12.540;2022-07-29T01:42:41;14.80;99.90
20590;DHT22;10453;50.810;12.540;2022-07-29T01:47:00;14.90;99.90
20590;DHT22;10453;50.810;12.540;2022-07-29T01:51:25;15.00;99.90
20590;DHT22;10453;50.810;12.540;2022-07-29T01:55:45;15.00;99.90
20590;DHT22;10453;50.810;12.540;2022-07-29T02:00:03;15.00;99.90
20590;DHT22;10453;50.810;12.540;2022-07-29T02:04:21;15.00;99.90
20590;DHT22;10453;50.810;12.540;2022-07-29T02:08:46;14.90;99.90
20590;DHT22;10453;50.810;12.540;2022-07-29T02:13:04;14.90;99.90
20590;DHT22;10453;50.810;12.540;2022-07-29T02:17:23;15.00;99.90
20590;DHT22;10453;50.810;12.540;2022-07-29T02:21:41;14.90;99.90
20590;DHT22;10453;50.810;12.540;2022-07-29T02:26:00;15.00;99.90
20590;DHT22;10453;50.810;12.540;2022-07-29T02:30:18;14.90;99.90
20590;DHT22;10453;50.810;12.540;2022-07-29T02:34:37;14.90;99.90
20590;DHT22;10453;50.810;12.540;2022-07-29T02:38:55;14.90;99.90
20590;DHT22;10453;50.810;12.540;2022-07-29T02:43:14;14.80;99.90
20590;DHT22;10453;50.810;12.540;2022-07-29T02:47:36;14.90;99.90
20590;DHT22;10453;50.810;12.540;2022-07-29T02:51:59;14.90;99.90
20590;DHT22;10453;50.810;12.540;2022-07-29T02:56:16;14.90;99.90
20590;DHT22;10453;50.810;12.540;2022-07-29T03:00:37;14.80;99.90
20590;DHT22;10453;50.810;12.540;2022-07-29T03:04:54;14.70;99.90
20590;DHT22;10453;50.810;12.540;2022-07-29T03:09:13;14.80;99.90
20590;DHT22;10453;50.810;12.540;2022-07-29T03:13:31;14.90;99.90
20590;DHT22;10453;50.810;12.540;2022-07-29T03:17:48;14.90;99.90
20590;DHT22;10453;50.810;12.540;2022-07-29T03:22:06;14.90;99.90
20590;DHT22;10453;50.810;12.540;2022-07-29T03:26:23;14.90;99.90
20590;DHT22;10453;50.810;12.540;2022-07-29T03:30:40;14.90;99.90
20590;DHT22;10453;50.810;12.540;2022-07-29T03:35:00;14.80;99.90
20590;DHT22;10453;50.810;12.540;2022-07-29T03:39:24;14.80;99.90
20590;DHT22;10453;50.810;12.540;2022-07-29T03:43:42;14.70;99.90
20590;DHT22;10453;50.810;12.540;2022-07-29T03:48:07;14.70;99.90
20590;DHT22;10453;50.810;12.540;2022-07-29T03:52:25;14.70;99.90
20590;DHT22;10453;50.810;12.540;2022-07-29T03:56:42;14.70;99.90
20590;DHT22;10453;50.810;12.540;2022-07-29T04:01:03;14.70;99.90
20590;DHT22;10453;50.810;12.540;2022-07-29T04:05:20;14.70;99.90
20590;DHT22;10453;50.810;12.540;2022-07-29T04:09:37;14.70;99.90
20590;DHT22;10453;50.810;12.540;2022-07-29T04:13:54;14.70;99.90
20590;DHT22;10453;50.810;12.540;2022-07-29T04:18:11;14.60;99.90
20590;DHT22;10453;50.810;12.540;2022-07-29T04:22:28;14.60;99.90
20590;DHT22;10453;50.810;12.540;2022-07-29T04:26:46;14.70;99.90
20590;DHT22;10453;50.810;12.540;2022-07-29T04:31:03;14.70;99.90
20590;DHT22;10453;50.810;12.540;2022-07-29T04:35:20;14.80;99.90
20590;DHT22;10453;50.810;12.540;2022-07-29T04:39:37;14.90;99.90
20590;DHT22;10453;50.810;12.540;2022-07-29T04:43:54;15.10;99.90
20590;DHT22;10453;50.810;12.540;2022-07-29T04:48:13;15.20;99.90
20590;DHT22;10453;50.810;12.540;2022-07-29T04:52:30;15.30;99.90
20590;DHT22;10453;50.810;12.540;2022-07-29T04:56:47;15.50;99.90
20590;DHT22;10453;50.810;12.540;2022-07-29T05:01:04;15.60;99.90
20590;DHT22;10453;50.810;12.540;2022-07-29T05:05:21;15.40;99.90
20590;DHT22;10453;50.810;12.540;2022-07-29T05:09:38;15.50;99.90
20590;DHT22;10453;50.810;12.540;2022-07-29T05:13:55;15.80;99.90
20590;DHT22;10453;50.810;12.540;2022-07-29T05:18:12;16.00;99.90
20590;DHT22;10453;50.810;12.540;2022-07-29T05:22:30;16.20;99.90
20590;DHT22;10453;50.810;12.540;2022-07-29T05:26:47;16.10;99.90
20590;DHT22;10453;50.810;12.540;2022-07-29T05:31:04;16.40;99.90
20590;DHT22;10453;50.810;12.540;2022-07-29T05:35:22;16.70;99.90
20590;DHT22;10453;50.810;12.540;2022-07-29T05:39:39;17.10;99.90
20590;DHT22;10453;50.810;12.540;2022-07-29T05:44:06;17.30;99.90
20590;DHT22;10453;50.810;12.540;2022-07-29T05:48:23;17.40;99.90
20590;DHT22;10453;50.810;12.540;2022-07-29T05:52:41;17.40;99.90
20590;DHT22;10453;50.810;12.540;2022-07-29T05:56:58;17.40;99.90
20590;DHT22;10453;50.810;12.540;2022-07-29T06:01:15;17.70;99.30
20590;DHT22;10453;50.810;12.540;2022-07-29T06:05:32;17.50;97.70
20590;DHT22;10453;50.810;12.540;2022-07-29T06:09:49;17.70;99.90
20590;DHT22;10453;50.810;12.540;2022-07-29T06:14:06;17.90;98.40
20590;DHT22;10453;50.810;12.540;2022-07-29T06:18:23;17.80;96.30
20590;DHT22;10453;50.810;12.540;2022-07-29T06:22:40;17.80;97.60
20590;DHT22;10453;50.810;12.540;2022-07-29T06:26:57;18.10;96.90
20590;DHT22;10453;50.810;12.540;2022-07-29T06:31:15;18.00;95.70
20590;DHT22;10453;50.810;12.540;2022-07-29T06:35:35;18.30;95.50
20590;DHT22;10453;50.810;12.540;2022-07-29T06:39:58;18.30;95.60
20590;DHT22;10453;50.810;12.540;2022-07-29T06:44:33;18.40;95.50
20590;DHT22;10453;50.810;12.540;2022-07-29T06:48:51;18.20;96.10
20590;DHT22;10453;50.810;12.540;2022-07-29T06:53:09;18.30;95.00
20590;DHT22;10453;50.810;12.540;2022-07-29T06:57:26;18.50;93.00
20590;DHT22;10453;50.810;12.540;2022-07-29T07:01:43;18.90;96.20
20590;DHT22;10453;50.810;12.540;2022-07-29T07:06:00;19.00;91.20
20590;DHT22;10453;50.810;12.540;2022-07-29T07:10:17;19.50;91.80
20590;DHT22;10453;50.810;12.540;2022-07-29T07:14:34;19.70;91.20
20590;DHT22;10453;50.810;12.540;2022-07-29T07:18:51;19.80;88.90
20590;DHT22;10453;50.810;12.540;2022-07-29T07:23:08;19.50;93.50
20590;DHT22;10453;50.810;12.540;2022-07-29T07:27:25;19.50;91.10
20590;DHT22;10453;50.810;12.540;2022-07-29T07:31:44;19.40;91.50
20590;DHT22;10453;50.810;12.540;2022-07-29T07:36:01;19.50;91.30
20590;DHT22;10453;50.810;12.540;2022-07-29T07:40:18;19.50;92.30
20590;DHT22;10453;50.810;12.540;2022-07-29T07:44:35;19.40;92.30
20590;DHT22;10453;50.810;12.540;2022-07-29T07:49:12;19.40;92.10
20590;DHT22;10453;50.810;12.540;2022-07-29T07:53:29;20.10;91.80
20590;DHT22;10453;50.810;12.540;2022-07-29T07:57:48;20.90;90.70
20590;DHT22;10453;50.810;12.540;2022-07-29T08:02:05;22.90;81.80
20590;DHT22;10453;50.810;12.540;2022-07-29T08:06:22;23.40;77.50
20590;DHT22;10453;50.810;12.540;2022-07-29T08:10:41;22.90;77.00
20590;DHT22;10453;50.810;12.540;2022-07-29T08:15:12;24.10;79.90
20590;DHT22;10453;50.810;12.540;2022-07-29T08:19:29;24.40;71.20
20590;DHT22;10453;50.810;12.540;2022-07-29T08:23:46;24.90;73.00
20590;DHT22;10453;50.810;12.540;2022-07-29T08:28:16;24.60;73.40
20590;DHT22;10453;50.810;12.540;2022-07-29T08:32:33;25.60;73.60
20590;DHT22;10453;50.810;12.540;2022-07-29T08:37:10;25.50;69.10
20590;DHT22;10453;50.810;12.540;2022-07-29T08:41:27;26.20;69.50
20590;DHT22;10453;50.810;12.540;2022-07-29T08:45:48;26.70;65.90
20590;DHT22;10453;50.810;12.540;2022-07-29T08:50:08;26.40;68.70
20590;DHT22;10453;50.810;12.540;2022-07-29T08:54:26;26.90;68.50
20590;DHT22;10453;50.810;12.540;2022-07-29T08:58:44;27.40;63.80
20590;DHT22;10453;50.810;12.540;2022-07-29T09:03:08;27.50;63.80
20590;DHT22;10453;50.810;12.540;2022-07-29T09:07:26;28.00;68.80
20590;DHT22;10453;50.810;12.540;2022-07-29T09:11:50;29.70;62.30
20590;DHT22;10453;50.810;12.540;2022-07-29T09:16:08;30.20;59.60
20590;DHT22;10453;50.810;12.540;2022-07-29T09:20:26;29.20;58.80
20590;DHT22;10453;50.810;12.540;2022-07-29T09:25:03;28.20;59.30
20590;DHT22;10453;50.810;12.540;2022-07-29T09:29:21;29.20;59.00
20590;DHT22;10453;50.810;12.540;2022-07-29T09:33:38;28.60;59.10
20590;DHT22;10453;50.810;12.540;2022-07-29T09:37:57;29.10;57.40
20590;DHT22;10453;50.810;12.540;2022-07-29T09:42:14;28.90;57.90
20590;DHT22;10453;50.810;12.540;2022-07-29T09:46:56;28.90;61.40
20590;DHT22;10453;50.810;12.540;2022-07-29T09:51:18;28.70;59.30
20590;DHT22;10453;50.810;12.540;2022-07-29T09:55:49;29.10;57.80
20590;DHT22;10453;50.810;12.540;2022-07-29T10:00:09;31.30;57.80
20590;DHT22;10453;50.810;12.540;2022-07-29T10:04:39;31.50;55.90
20590;DHT22;10453;50.810;12.540;2022-07-29T10:09:09;33.80;54.40
20590;DHT22;10453;50.810;12.540;2022-07-29T10:13:26;34.30;46.60
20590;DHT22;10453;50.810;12.540;2022-07-29T10:17:43;34.50;49.60
20590;DHT22;10453;50.810;12.540;2022-07-29T10:22:02;34.40;46.30
20590;DHT22;10453;50.810;12.540;2022-07-29T10:26:20;33.10;50.00
20590;DHT22;10453;50.810;12.540;2022-07-29T10:30:37;32.10;50.30
20590;DHT22;10453;50.810;12.540;2022-07-29T10:35:15;31.50;48.70
20590;DHT22;10453;50.810;12.540;2022-07-29T10:39:46;31.20;51.30
20590;DHT22;10453;50.810;12.540;2022-07-29T10:44:16;31.30;52.70
20590;DHT22;10453;50.810;12.540;2022-07-29T10:53:14;30.10;51.20
20590;DHT22;10453;50.810;12.540;2022-07-29T10:57:31;30.40;49.60
20590;DHT22;10453;50.810;12.540;2022-07-29T11:15:56;31.80;51.20
20590;DHT22;10453;50.810;12.540;2022-07-29T11:25:11;34.40;47.00
20590;DHT22;10453;50.810;12.540;2022-07-29T11:29:27;32.90;45.50
20590;DHT22;10453;50.810;12.540;2022-07-29T11:33:45;31.10;49.30
20590;DHT22;10453;50.810;12.540;2022-07-29T11:42:39;33.00;48.40
20590;DHT22;10453;50.810;12.540;2022-07-29T11:47:00;32.40;48.10
20590;DHT22;10453;50.810;12.540;2022-07-29T11:51:18;31.70;47.20
20590;DHT22;10453;50.810;12.540;2022-07-29T11:55:48;30.90;48.70
20590;DHT22;10453;50.810;12.540;2022-07-29T12:00:11;29.70;50.00
20590;DHT22;10453;50.810;12.540;2022-07-29T12:04:47;29.40;52.10
20590;DHT22;10453;50.810;12.540;2022-07-29T12:09:07;30.00;51.50
20590;DHT22;10453;50.810;12.540;2022-07-29T12:13:30;32.00;50.10
20590;DHT22;10453;50.810;12.540;2022-07-29T12:17:55;33.80;44.50
20590;DHT22;10453;50.810;12.540;2022-07-29T12:22:13;32.10;46.50
20590;DHT22;10453;50.810;12.540;2022-07-29T12:26:54;32.70;47.10
20590;DHT22;10453;50.810;12.540;2022-07-29T12:31:12;32.10;47.50
20590;DHT22;10453;50.810;12.540;2022-07-29T12:35:30;33.90;46.50
20590;DHT22;10453;50.810;12.540;2022-07-29T12:39:47;34.60;43.60
20590;DHT22;10453;50.810;12.540;2022-07-29T12:44:04;31.30;45.90
20590;DHT22;10453;50.810;12.540;2022-07-29T12:48:34;30.00;48.50
20590;DHT22;10453;50.810;12.540;2022-07-29T12:52:51;29.90;49.20
20590;DHT22;10453;50.810;12.540;2022-07-29T12:57:08;29.10;51.00
20590;DHT22;10453;50.810;12.540;2022-07-29T13:01:36;29.10;51.90
20590;DHT22;10453;50.810;12.540;2022-07-29T13:05:53;28.80;51.80
20590;DHT22;10453;50.810;12.540;2022-07-29T13:10:17;28.70;51.80
20590;DHT22;10453;50.810;12.540;2022-07-29T13:14:46;28.50;52.20
20590;DHT22;10453;50.810;12.540;2022-07-29T13:19:07;28.10;53.70
20590;DHT22;10453;50.810;12.540;2022-07-29T13:23:25;27.80;54.20
20590;DHT22;10453;50.810;12.540;2022-07-29T13:27:43;27.70;56.10
20590;DHT22;10453;50.810;12.540;2022-07-29T13:32:02;27.60;55.10
20590;DHT22;10453;50.810;12.540;2022-07-29T13:36:19;27.20;56.00
20590;DHT22;10453;50.810;12.540;2022-07-29T13:40:37;26.70;66.70
20590;DHT22;10453;50.810;12.540;2022-07-29T13:44:54;25.40;93.70
20590;DHT22;10453;50.810;12.540;2022-07-29T13:49:11;24.60;98.70
20590;DHT22;10453;50.810;12.540;2022-07-29T13:53:29;24.00;99.90
20590;DHT22;10453;50.810;12.540;2022-07-29T13:57:46;23.10;99.90
20590;DHT22;10453;50.810;12.540;2022-07-29T14:02:03;22.00;99.90
20590;DHT22;10453;50.810;12.540;2022-07-29T14:06:22;21.50;99.90
20590;DHT22;10453;50.810;12.540;2022-07-29T14:10:39;21.10;99.90
20590;DHT22;10453;50.810;12.540;2022-07-29T14:14:56;20.10;99.90
20590;DHT22;10453;50.810;12.540;2022-07-29T14:19:13;19.80;99.90
20590;DHT22;10453;50.810;12.540;2022-07-29T14:23:30;19.60;99.90
20590;DHT22;10453;50.810;12.540;2022-07-29T14:27:48;19.20;99.90
20590;DHT22;10453;50.810;12.540;2022-07-29T14:32:05;19.10;99.90
20590;DHT22;10453;50.810;12.540;2022-07-29T14:36:23;19.20;99.90
20590;DHT22;10453;50.810;12.540;2022-07-29T14:40:40;19.00;99.90
20590;DHT22;10453;50.810;12.540;2022-07-29T14:44:58;18.90;99.90
20590;DHT22;10453;50.810;12.540;2022-07-29T14:49:15;18.80;99.90
20590;DHT22;10453;50.810;12.540;2022-07-29T14:53:32;18.70;99.90
20590;DHT22;10453;50.810;12.540;2022-07-29T14:57:49;18.50;99.90
20590;DHT22;10453;50.810;12.540;2022-07-29T15:02:06;18.30;99.90
20590;DHT22;10453;50.810;12.540;2022-07-29T15:06:23;18.20;99.90
20590;DHT22;10453;50.810;12.540;2022-07-29T15:10:40;18.20;99.90
20590;DHT22;10453;50.810;12.540;2022-07-29T15:14:57;18.10;99.90
20590;DHT22;10453;50.810;12.540;2022-07-29T15:19:15;18.10;99.90
20590;DHT22;10453;50.810;12.540;2022-07-29T15:23:32;18.10;99.90
20590;DHT22;10453;50.810;12.540;2022-07-29T15:27:50;18.10;99.90
20590;DHT22;10453;50.810;12.540;2022-07-29T15:32:10;18.10;99.90
20590;DHT22;10453;50.810;12.540;2022-07-29T15:36:27;18.30;99.90
20590;DHT22;10453;50.810;12.540;2022-07-29T15:41:05;18.40;99.90
20590;DHT22;10453;50.810;12.540;2022-07-29T15:45:22;18.60;99.90
20590;DHT22;10453;50.810;12.540;2022-07-29T15:49:39;19.10;99.90
20590;DHT22;10453;50.810;12.540;2022-07-29T15:54:05;20.00;99.90
20590;DHT22;10453;50.810;12.540;2022-07-29T15:58:22;20.40;99.90
20590;DHT22;10453;50.810;12.540;2022-07-29T16:02:39;20.00;99.90
20590;DHT22;10453;50.810;12.540;2022-07-29T16:06:56;19.50;99.90
20590;DHT22;10453;50.810;12.540;2022-07-29T16:11:14;19.20;99.90
20590;DHT22;10453;50.810;12.540;2022-07-29T16:15:31;19.00;99.90
20590;DHT22;10453;50.810;12.540;2022-07-29T16:19:49;19.00;99.90
20590;DHT22;10453;50.810;12.540;2022-07-29T16:24:06;18.90;99.90
20590;DHT22;10453;50.810;12.540;2022-07-29T16:28:23;18.80;99.90
20590;DHT22;10453;50.810;12.540;2022-07-29T16:32:40;19.10;99.90
20590;DHT22;10453;50.810;12.540;2022-07-29T16:36:57;19.50;99.90
20590;DHT22;10453;50.810;12.540;2022-07-29T16:41:15;20.00;99.90
20590;DHT22;10453;50.810;12.540;2022-07-29T16:45:32;20.10;99.90
20590;DHT22;10453;50.810;12.540;2022-07-29T16:50:02;20.40;99.90
20590;DHT22;10453;50.810;12.540;2022-07-29T16:54:19;20.50;99.90
20590;DHT22;10453;50.810;12.540;2022-07-29T16:58:36;20.40;99.90
20590;DHT22;10453;50.810;12.540;2022-07-29T17:02:59;20.10;99.90
20590;DHT22;10453;50.810;12.540;2022-07-29T17:07:16;20.20;99.90
20590;DHT22;10453;50.810;12.540;2022-07-29T17:11:33;20.20;99.90
20590;DHT22;10453;50.810;12.540;2022-07-29T17:16:09;20.20;99.90
20590;DHT22;10453;50.810;12.540;2022-07-29T17:20:27;20.10;99.90
20590;DHT22;10453;50.810;12.540;2022-07-29T17:24:45;19.80;99.90
20590;DHT22;10453;50.810;12.540;2022-07-29T17:29:03;19.70;99.90
20590;DHT22;10453;50.810;12.540;2022-07-29T17:33:20;19.60;99.90
20590;DHT22;10453;50.810;12.540;2022-07-29T17:37:37;19.50;99.90
20590;DHT22;10453;50.810;12.540;2022-07-29T17:41:54;19.30;99.90
20590;DHT22;10453;50.810;12.540;2022-07-29T17:46:11;19.40;99.90
20590;DHT22;10453;50.810;12.540;2022-07-29T17:50:28;19.30;99.90
20590;DHT22;10453;50.810;12.540;2022-07-29T17:54:45;19.30;99.90
20590;DHT22;10453;50.810;12.540;2022-07-29T17:59:05;19.20;99.90
20590;DHT22;10453;50.810;12.540;2022-07-29T18:03:25;19.20;99.90
20590;DHT22;10453;50.810;12.540;2022-07-29T18:07:43;19.20;99.90
20590;DHT22;10453;50.810;12.540;2022-07-29T18:12:00;19.10;99.90
20590;DHT22;10453;50.810;12.540;2022-07-29T18:16:17;19.00;99.90
20590;DHT22;10453;50.810;12.540;2022-07-29T18:20:34;18.90;99.90
20590;DHT22;10453;50.810;12.540;2022-07-29T18:24:51;18.80;99.90
20590;DHT22;10453;50.810;12.540;2022-07-29T18:29:08;18.70;99.90
20590;DHT22;10453;50.810;12.540;2022-07-29T18:33:26;18.60;99.90
20590;DHT22;10453;50.810;12.540;2022-07-29T18:37:43;18.50;99.90
20590;DHT22;10453;50.810;12.540;2022-07-29T18:42:18;18.50;99.90
20590;DHT22;10453;50.810;12.540;2022-07-29T18:46:35;18.50;99.90
20590;DHT22;10453;50.810;12.540;2022-07-29T18:51:00;18.50;99.90
20590;DHT22;10453;50.810;12.540;2022-07-29T18:55:17;18.50;99.90
20590;DHT22;10453;50.810;12.540;2022-07-29T18:59:34;18.50;99.90
20590;DHT22;10453;50.810;12.540;2022-07-29T19:03:51;18.50;99.90
20590;DHT22;10453;50.810;12.540;2022-07-29T19:08:09;18.60;99.90
20590;DHT22;10453;50.810;12.540;2022-07-29T19:12:26;18.50;99.90
20590;DHT22;10453;50.810;12.540;2022-07-29T19:16:43;18.50;99.90
20590;DHT22;10453;50.810;12.540;2022-07-29T19:21:00;18.50;99.90
20590;DHT22;10453;50.810;12.540;2022-07-29T19:25:17;18.50;99.90
20590;DHT22;10453;50.810;12.540;2022-07-29T19:29:35;18.40;99.90
20590;DHT22;10453;50.810;12.540;2022-07-29T19:33:52;18.40;99.90
20590;DHT22;10453;50.810;12.540;2022-07-29T19:38:09;18.30;99.90
20590;DHT22;10453;50.810;12.540;2022-07-29T19:42:27;18.40;99.90
20590;DHT22;10453;50.810;12.540;2022-07-29T19:46:44;18.40;99.90
20590;DHT22;10453;50.810;12.540;2022-07-29T19:51:01;18.40;99.90
20590;DHT22;10453;50.810;12.540;2022-07-29T19:55:19;18.40;99.90
20590;DHT22;10453;50.810;12.540;2022-07-29T19:59:36;18.50;99.90
20590;DHT22;10453;50.810;12.540;2022-07-29T20:03:53;18.50;99.90
20590;DHT22;10453;50.810;12.540;2022-07-29T20:08:10;18.50;99.90
20590;DHT22;10453;50.810;12.540;2022-07-29T20:12:27;18.70;99.90
20590;DHT22;10453;50.810;12.540;2022-07-29T20:16:44;18.70;99.90
20590;DHT22;10453;50.810;12.540;2022-07-29T20:21:01;18.70;99.90
20590;DHT22;10453;50.810;12.540;2022-07-29T20:25:21;18.80;99.90
20590;DHT22;10453;50.810;12.540;2022-07-29T20:29:38;18.80;99.90
20590;DHT22;10453;50.810;12.540;2022-07-29T20:33:55;18.80;99.90
20590;DHT22;10453;50.810;12.540;2022-07-29T20:38:12;18.80;99.90
20590;DHT22;10453;50.810;12.540;2022-07-29T20:42:34;18.80;99.90
20590;DHT22;10453;50.810;12.540;2022-07-29T20:46:51;18.80;99.90
20590;DHT22;10453;50.810;12.540;2022-07-29T20:51:08;18.80;99.90
20590;DHT22;10453;50.810;12.540;2022-07-29T20:55:25;18.80;99.90
20590;DHT22;10453;50.810;12.540;2022-07-29T20:59:42;18.80;99.90
20590;DHT22;10453;50.810;12.540;2022-07-29T21:04:01;18.80;99.90
20590;DHT22;10453;50.810;12.540;2022-07-29T21:08:18;18.90;99.90
20590;DHT22;10453;50.810;12.540;2022-07-29T21:12:35;18.80;99.90
20590;DHT22;10453;50.810;12.540;2022-07-29T21:16:52;18.90;99.90
20590;DHT22;10453;50.810;12.540;2022-07-29T21:21:10;19.00;99.90
20590;DHT22;10453;50.810;12.540;2022-07-29T21:25:27;18.90;99.90
20590;DHT22;10453;50.810;12.540;2022-07-29T21:29:45;18.80;99.90
20590;DHT22;10453;50.810;12.540;2022-07-29T21:34:02;18.70;99.90
20590;DHT22;10453;50.810;12.540;2022-07-29T21:38:19;18.60;99.90
20590;DHT22;10453;50.810;12.540;2022-07-29T21:42:36;18.40;99.90
20590;DHT22;10453;50.810;12.540;2022-07-29T21:46:53;18.30;99.90
20590;DHT22;10453;50.810;12.540;2022-07-29T21:51:10;18.20;99.90
20590;DHT22;10453;50.810;12.540;2022-07-29T21:55:27;18.20;99.90
20590;DHT22;10453;50.810;12.540;2022-07-29T21:59:47;18.10;99.90
20590;DHT22;10453;50.810;12.540;2022-07-29T22:04:04;18.10;99.90
20590;DHT22;10453;50.810;12.540;2022-07-29T22:08:21;18.00;99.90
20590;DHT22;10453;50.810;12.540;2022-07-29T22:12:38;18.00;99.90
20590;DHT22;10453;50.810;12.540;2022-07-29T22:16:56;17.90;99.90
20590;DHT22;10453;50.810;12.540;2022-07-29T22:21:15;17.80;99.90
20590;DHT22;10453;50.810;12.540;2022-07-29T22:25:32;17.70;99.90
20590;DHT22;10453;50.810;12.540;2022-07-29T22:29:49;17.70;99.90
20590;DHT22;10453;50.810;12.540;2022-07-29T22:34:06;17.70;99.90
20590;DHT22;10453;50.810;12.540;2022-07-29T22:38:28;17.60;99.90
20590;DHT22;10453;50.810;12.540;2022-07-29T22:42:45;17.60;99.90
20590;DHT22;10453;50.810;12.540;2022-07-29T22:47:02;17.60;99.90
20590;DHT22;10453;50.810;12.540;2022-07-29T22:51:19;17.70;99.90
20590;DHT22;10453;50.810;12.540;2022-07-29T22:55:36;17.60;99.90
20590;DHT22;10453;50.810;12.540;2022-07-29T22:59:53;17.60;99.90
20590;DHT22;10453;50.810;12.540;2022-07-29T23:04:10;17.60;99.90
20590;DHT22;10453;50.810;12.540;2022-07-29T23:08:28;17.50;99.90
20590;DHT22;10453;50.810;12.540;2022-07-29T23:12:45;17.50;99.90
20590;DHT22;10453;50.810;12.540;2022-07-29T23:17:02;17.50;99.90
20590;DHT22;10453;50.810;12.540;2022-07-29T23:21:20;17.60;99.90
20590;DHT22;10453;50.810;12.540;2022-07-29T23:25:37;17.60;99.90
20590;DHT22;10453;50.810;12.540;2022-07-29T23:29:54;17.60;99.90
20590;DHT22;10453;50.810;12.540;2022-07-29T23:34:11;17.50;99.90
20590;DHT22;10453;50.810;12.540;2022-07-29T23:38:28;17.50;99.90
20590;DHT22;10453;50.810;12.540;2022-07-29T23:42:45;17.50;99.90
20590;DHT22;10453;50.810;12.540;2022-07-29T23:47:02;17.50;99.90
20590;DHT22;10453;50.810;12.540;2022-07-29T23:51:20;17.50;99.90
20590;DHT22;10453;50.810;12.540;2022-07-29T23:55:37;17.50;99.90
20590;DHT22;10453;50.810;12.540;2022-07-29T23:59:55;17.40;99.90
